sensor_id;sensor_type;location;lat;lon;timestamp;temperature;humidity
44607;DHT22;30315;46.072;14.474;2022-08-03T00:01:38;24.40;72.40
44607;DHT22;30315;46.072;14.474;2022-08-03T00:04:06;24.40;72.20
44607;DHT22;30315;46.072;14.474;2022-08-03T00:06:34;24.30;72.30
44607;DHT22;30315;46.072;14.474;2022-08-03T00:09:04;24.40;72.30
44607;DHT22;30315;46.072;14.474;2022-08-03T00:11:31;24.30;72.40
44607;DHT22;30315;46.072;14.474;2022-08-03T00:13:59;24.20;72.50
44607;DHT22;30315;46.072;14.474;2022-08-03T00:16:26;24.30;72.50
44607;DHT22;30315;46.072;14.474;2022-08-03T00:18:54;24.20;72.50
44607;DHT22;30315;46.072;14.474;2022-08-03T00:21:21;24.20;72.40
44607;DHT22;30315;46.072;14.474;2022-08-03T00:23:48;24.10;72.60
44607;DHT22;30315;46.072;14.474;2022-08-03T00:26:21;24.10;72.70
44607;DHT22;30315;46.072;14.474;2022-08-03T00:28:49;24.00;72.60
44607;DHT22;30315;46.072;14.474;2022-08-03T00:31:16;24.00;72.60
44607;DHT22;30315;46.072;14.474;2022-08-03T00:34:06;23.90;72.80
44607;DHT22;30315;46.072;14.474;2022-08-03T00:36:34;23.90;73.20
44607;DHT22;30315;46.072;14.474;2022-08-03T00:39:03;23.90;73.80
44607;DHT22;30315;46.072;14.474;2022-08-03T00:41:31;23.80;73.10
44607;DHT22;30315;46.072;14.474;2022-08-03T00:43:57;23.70;74.00
44607;DHT22;30315;46.072;14.474;2022-08-03T00:46:24;23.70;73.40
44607;DHT22;30315;46.072;14.474;2022-08-03T00:48:52;23.70;73.50
44607;DHT22;30315;46.072;14.474;2022-08-03T00:51:20;23.70;73.50
44607;DHT22;30315;46.072;14.474;2022-08-03T00:53:48;23.70;73.60
44607;DHT22;30315;46.072;14.474;2022-08-03T00:56:16;23.60;73.60
44607;DHT22;30315;46.072;14.474;2022-08-03T00:58:44;23.60;73.40
44607;DHT22;30315;46.072;14.474;2022-08-03T01:01:12;23.60;73.60
44607;DHT22;30315;46.072;14.474;2022-08-03T01:03:39;23.50;73.80
44607;DHT22;30315;46.072;14.474;2022-08-03T01:06:16;23.60;73.80
44607;DHT22;30315;46.072;14.474;2022-08-03T01:11:26;23.50;73.60
44607;DHT22;30315;46.072;14.474;2022-08-03T01:14:00;23.50;73.60
44607;DHT22;30315;46.072;14.474;2022-08-03T01:20:07;23.50;73.90
44607;DHT22;30315;46.072;14.474;2022-08-03T01:25:05;23.40;74.10
44607;DHT22;30315;46.072;14.474;2022-08-03T01:27:44;23.40;74.20
44607;DHT22;30315;46.072;14.474;2022-08-03T01:30:14;23.40;74.50
44607;DHT22;30315;46.072;14.474;2022-08-03T01:32:51;23.40;74.70
44607;DHT22;30315;46.072;14.474;2022-08-03T01:35:35;23.30;74.70
44607;DHT22;30315;46.072;14.474;2022-08-03T01:38:11;23.30;74.90
44607;DHT22;30315;46.072;14.474;2022-08-03T01:40:40;23.30;75.10
44607;DHT22;30315;46.072;14.474;2022-08-03T01:43:11;23.20;75.20
44607;DHT22;30315;46.072;14.474;2022-08-03T01:46:01;23.30;75.50
44607;DHT22;30315;46.072;14.474;2022-08-03T01:48:29;23.30;75.40
44607;DHT22;30315;46.072;14.474;2022-08-03T01:50:58;23.20;74.90
44607;DHT22;30315;46.072;14.474;2022-08-03T01:53:26;23.20;75.10
44607;DHT22;30315;46.072;14.474;2022-08-03T01:55:55;23.20;74.90
44607;DHT22;30315;46.072;14.474;2022-08-03T01:58:24;23.20;74.80
44607;DHT22;30315;46.072;14.474;2022-08-03T02:00:52;23.10;74.50
44607;DHT22;30315;46.072;14.474;2022-08-03T02:03:24;23.10;74.20
44607;DHT22;30315;46.072;14.474;2022-08-03T02:05:52;23.10;74.40
44607;DHT22;30315;46.072;14.474;2022-08-03T02:08:42;23.10;74.70
44607;DHT22;30315;46.072;14.474;2022-08-03T02:14:01;23.10;74.70
44607;DHT22;30315;46.072;14.474;2022-08-03T02:16:30;23.00;74.60
44607;DHT22;30315;46.072;14.474;2022-08-03T02:19:02;22.90;74.90
44607;DHT22;30315;46.072;14.474;2022-08-03T02:21:32;22.90;75.10
44607;DHT22;30315;46.072;14.474;2022-08-03T02:24:21;22.90;75.00
44607;DHT22;30315;46.072;14.474;2022-08-03T02:26:48;22.90;75.10
44607;DHT22;30315;46.072;14.474;2022-08-03T02:29:20;22.90;75.10
44607;DHT22;30315;46.072;14.474;2022-08-03T02:32:11;22.80;75.40
44607;DHT22;30315;46.072;14.474;2022-08-03T02:34:41;22.80;74.90
44607;DHT22;30315;46.072;14.474;2022-08-03T02:37:12;22.80;75.20
44607;DHT22;30315;46.072;14.474;2022-08-03T02:39:41;22.70;75.30
44607;DHT22;30315;46.072;14.474;2022-08-03T02:42:11;22.70;75.30
44607;DHT22;30315;46.072;14.474;2022-08-03T02:44:39;22.60;75.20
44607;DHT22;30315;46.072;14.474;2022-08-03T02:47:11;22.70;75.30
44607;DHT22;30315;46.072;14.474;2022-08-03T02:49:39;22.60;75.60
44607;DHT22;30315;46.072;14.474;2022-08-03T02:52:19;22.60;75.40
44607;DHT22;30315;46.072;14.474;2022-08-03T02:54:49;22.60;75.50
44607;DHT22;30315;46.072;14.474;2022-08-03T02:57:18;22.60;75.50
44607;DHT22;30315;46.072;14.474;2022-08-03T02:59:46;22.60;75.50
44607;DHT22;30315;46.072;14.474;2022-08-03T03:02:14;22.60;75.40
44607;DHT22;30315;46.072;14.474;2022-08-03T03:04:43;22.50;75.40
44607;DHT22;30315;46.072;14.474;2022-08-03T03:07:32;22.50;75.30
44607;DHT22;30315;46.072;14.474;2022-08-03T03:10:19;22.50;75.50
44607;DHT22;30315;46.072;14.474;2022-08-03T03:12:48;22.50;75.30
44607;DHT22;30315;46.072;14.474;2022-08-03T03:15:17;22.50;75.40
44607;DHT22;30315;46.072;14.474;2022-08-03T03:17:44;22.30;75.40
44607;DHT22;30315;46.072;14.474;2022-08-03T03:20:13;22.30;75.50
44607;DHT22;30315;46.072;14.474;2022-08-03T03:22:57;22.40;75.90
44607;DHT22;30315;46.072;14.474;2022-08-03T03:25:27;22.30;75.60
44607;DHT22;30315;46.072;14.474;2022-08-03T03:27:56;22.40;75.90
44607;DHT22;30315;46.072;14.474;2022-08-03T03:30:25;22.30;75.30
44607;DHT22;30315;46.072;14.474;2022-08-03T03:32:53;22.30;75.40
44607;DHT22;30315;46.072;14.474;2022-08-03T03:35:21;22.20;75.60
44607;DHT22;30315;46.072;14.474;2022-08-03T03:37:48;22.10;76.00
44607;DHT22;30315;46.072;14.474;2022-08-03T03:40:15;22.10;76.30
44607;DHT22;30315;46.072;14.474;2022-08-03T03:42:42;22.10;76.30
44607;DHT22;30315;46.072;14.474;2022-08-03T03:45:10;22.10;76.20
44607;DHT22;30315;46.072;14.474;2022-08-03T03:47:37;22.10;76.40
44607;DHT22;30315;46.072;14.474;2022-08-03T03:50:05;22.10;76.40
44607;DHT22;30315;46.072;14.474;2022-08-03T03:52:33;22.10;76.30
44607;DHT22;30315;46.072;14.474;2022-08-03T03:54:59;22.10;76.30
44607;DHT22;30315;46.072;14.474;2022-08-03T03:57:27;22.10;76.50
44607;DHT22;30315;46.072;14.474;2022-08-03T03:59:55;22.10;76.40
44607;DHT22;30315;46.072;14.474;2022-08-03T04:02:22;22.10;76.10
44607;DHT22;30315;46.072;14.474;2022-08-03T04:04:50;22.10;76.20
44607;DHT22;30315;46.072;14.474;2022-08-03T04:07:58;22.10;76.40
44607;DHT22;30315;46.072;14.474;2022-08-03T04:10:53;22.10;76.30
44607;DHT22;30315;46.072;14.474;2022-08-03T04:13:34;22.00;76.30
44607;DHT22;30315;46.072;14.474;2022-08-03T04:16:03;22.00;76.40
44607;DHT22;30315;46.072;14.474;2022-08-03T04:18:33;21.90;76.70
44607;DHT22;30315;46.072;14.474;2022-08-03T04:21:04;21.90;76.70
44607;DHT22;30315;46.072;14.474;2022-08-03T04:23:36;22.00;76.90
44607;DHT22;30315;46.072;14.474;2022-08-03T04:26:08;22.00;76.70
44607;DHT22;30315;46.072;14.474;2022-08-03T04:28:36;22.00;76.90
44607;DHT22;30315;46.072;14.474;2022-08-03T04:31:05;22.00;76.90
44607;DHT22;30315;46.072;14.474;2022-08-03T04:33:33;22.00;77.00
44607;DHT22;30315;46.072;14.474;2022-08-03T04:36:05;22.00;77.20
44607;DHT22;30315;46.072;14.474;2022-08-03T04:38:37;22.00;77.20
44607;DHT22;30315;46.072;14.474;2022-08-03T04:41:07;22.00;77.10
44607;DHT22;30315;46.072;14.474;2022-08-03T04:43:35;22.00;77.20
44607;DHT22;30315;46.072;14.474;2022-08-03T04:46:07;22.10;77.40
44607;DHT22;30315;46.072;14.474;2022-08-03T04:48:35;22.10;77.70
44607;DHT22;30315;46.072;14.474;2022-08-03T04:51:02;22.10;77.90
44607;DHT22;30315;46.072;14.474;2022-08-03T04:53:30;22.10;77.90
44607;DHT22;30315;46.072;14.474;2022-08-03T04:56:03;22.10;78.10
44607;DHT22;30315;46.072;14.474;2022-08-03T04:58:31;22.20;78.00
44607;DHT22;30315;46.072;14.474;2022-08-03T05:00:58;22.20;77.80
44607;DHT22;30315;46.072;14.474;2022-08-03T05:03:25;22.20;78.10
44607;DHT22;30315;46.072;14.474;2022-08-03T05:05:53;22.30;78.30
44607;DHT22;30315;46.072;14.474;2022-08-03T05:08:36;22.30;77.90
44607;DHT22;30315;46.072;14.474;2022-08-03T05:11:14;22.30;78.00
44607;DHT22;30315;46.072;14.474;2022-08-03T05:13:42;22.40;78.20
44607;DHT22;30315;46.072;14.474;2022-08-03T05:16:13;22.40;78.30
44607;DHT22;30315;46.072;14.474;2022-08-03T05:18:41;22.40;78.20
44607;DHT22;30315;46.072;14.474;2022-08-03T05:21:09;22.50;78.30
44607;DHT22;30315;46.072;14.474;2022-08-03T05:23:36;22.50;78.30
44607;DHT22;30315;46.072;14.474;2022-08-03T05:26:03;22.60;78.40
44607;DHT22;30315;46.072;14.474;2022-08-03T05:28:30;22.60;78.20
44607;DHT22;30315;46.072;14.474;2022-08-03T05:30:57;22.60;78.10
44607;DHT22;30315;46.072;14.474;2022-08-03T05:33:24;22.60;78.10
44607;DHT22;30315;46.072;14.474;2022-08-03T05:35:51;22.70;78.40
44607;DHT22;30315;46.072;14.474;2022-08-03T05:38:28;22.70;78.20
44607;DHT22;30315;46.072;14.474;2022-08-03T05:41:02;22.80;78.20
44607;DHT22;30315;46.072;14.474;2022-08-03T05:43:52;22.80;78.20
44607;DHT22;30315;46.072;14.474;2022-08-03T05:46:21;22.80;78.10
44607;DHT22;30315;46.072;14.474;2022-08-03T05:48:48;22.80;78.00
44607;DHT22;30315;46.072;14.474;2022-08-03T05:51:15;22.80;77.70
44607;DHT22;30315;46.072;14.474;2022-08-03T05:53:43;22.90;77.80
44607;DHT22;30315;46.072;14.474;2022-08-03T05:56:13;23.00;77.80
44607;DHT22;30315;46.072;14.474;2022-08-03T05:58:46;23.00;77.60
44607;DHT22;30315;46.072;14.474;2022-08-03T06:01:15;23.00;77.50
44607;DHT22;30315;46.072;14.474;2022-08-03T06:03:43;23.10;77.70
44607;DHT22;30315;46.072;14.474;2022-08-03T06:06:10;23.10;77.20
44607;DHT22;30315;46.072;14.474;2022-08-03T06:08:38;23.20;77.10
44607;DHT22;30315;46.072;14.474;2022-08-03T06:11:06;23.20;77.00
44607;DHT22;30315;46.072;14.474;2022-08-03T06:13:33;23.20;76.70
44607;DHT22;30315;46.072;14.474;2022-08-03T06:16:01;23.20;76.50
44607;DHT22;30315;46.072;14.474;2022-08-03T06:18:28;23.30;76.40
44607;DHT22;30315;46.072;14.474;2022-08-03T06:20:55;23.30;75.50
44607;DHT22;30315;46.072;14.474;2022-08-03T06:23:22;23.30;75.50
44607;DHT22;30315;46.072;14.474;2022-08-03T06:26:09;23.40;75.70
44607;DHT22;30315;46.072;14.474;2022-08-03T06:28:39;23.40;75.50
44607;DHT22;30315;46.072;14.474;2022-08-03T06:31:20;23.40;75.20
44607;DHT22;30315;46.072;14.474;2022-08-03T06:33:48;23.40;74.80
44607;DHT22;30315;46.072;14.474;2022-08-03T06:36:35;23.50;74.90
44607;DHT22;30315;46.072;14.474;2022-08-03T06:39:03;23.50;74.90
44607;DHT22;30315;46.072;14.474;2022-08-03T06:41:30;23.50;75.00
44607;DHT22;30315;46.072;14.474;2022-08-03T06:44:10;23.60;74.60
44607;DHT22;30315;46.072;14.474;2022-08-03T06:46:37;23.60;74.60
44607;DHT22;30315;46.072;14.474;2022-08-03T06:49:05;23.60;74.70
44607;DHT22;30315;46.072;14.474;2022-08-03T06:51:33;23.70;74.00
44607;DHT22;30315;46.072;14.474;2022-08-03T06:54:19;23.70;74.20
44607;DHT22;30315;46.072;14.474;2022-08-03T06:56:47;23.70;73.80
44607;DHT22;30315;46.072;14.474;2022-08-03T06:59:14;23.80;73.80
44607;DHT22;30315;46.072;14.474;2022-08-03T07:02:01;23.90;74.00
44607;DHT22;30315;46.072;14.474;2022-08-03T07:04:29;23.90;74.00
44607;DHT22;30315;46.072;14.474;2022-08-03T07:06:56;24.00;74.70
44607;DHT22;30315;46.072;14.474;2022-08-03T07:09:23;24.00;74.50
44607;DHT22;30315;46.072;14.474;2022-08-03T07:11:52;24.00;74.10
44607;DHT22;30315;46.072;14.474;2022-08-03T07:14:19;24.10;73.50
44607;DHT22;30315;46.072;14.474;2022-08-03T07:16:46;24.10;73.30
44607;DHT22;30315;46.072;14.474;2022-08-03T07:19:13;24.10;72.90
44607;DHT22;30315;46.072;14.474;2022-08-03T07:21:41;24.10;72.60
44607;DHT22;30315;46.072;14.474;2022-08-03T07:24:07;24.20;71.90
44607;DHT22;30315;46.072;14.474;2022-08-03T07:26:34;24.30;71.80
44607;DHT22;30315;46.072;14.474;2022-08-03T07:29:02;24.30;71.60
44607;DHT22;30315;46.072;14.474;2022-08-03T07:31:37;24.40;72.00
44607;DHT22;30315;46.072;14.474;2022-08-03T07:34:04;24.50;71.60
44607;DHT22;30315;46.072;14.474;2022-08-03T07:36:31;24.50;71.10
44607;DHT22;30315;46.072;14.474;2022-08-03T07:39:00;24.60;70.90
44607;DHT22;30315;46.072;14.474;2022-08-03T07:41:43;24.70;70.70
44607;DHT22;30315;46.072;14.474;2022-08-03T07:44:10;24.70;70.30
44607;DHT22;30315;46.072;14.474;2022-08-03T07:46:37;24.80;69.70
44607;DHT22;30315;46.072;14.474;2022-08-03T07:49:04;24.90;69.70
44607;DHT22;30315;46.072;14.474;2022-08-03T07:51:31;24.90;69.20
44607;DHT22;30315;46.072;14.474;2022-08-03T07:53:58;25.00;69.10
44607;DHT22;30315;46.072;14.474;2022-08-03T07:56:26;25.10;68.50
44607;DHT22;30315;46.072;14.474;2022-08-03T07:58:54;25.20;68.00
44607;DHT22;30315;46.072;14.474;2022-08-03T08:01:22;25.20;66.80
44607;DHT22;30315;46.072;14.474;2022-08-03T08:03:49;25.20;66.70
44607;DHT22;30315;46.072;14.474;2022-08-03T08:06:18;25.30;67.10
44607;DHT22;30315;46.072;14.474;2022-08-03T08:08:45;25.30;67.00
44607;DHT22;30315;46.072;14.474;2022-08-03T08:11:12;25.30;66.10
44607;DHT22;30315;46.072;14.474;2022-08-03T08:13:39;25.40;65.90
44607;DHT22;30315;46.072;14.474;2022-08-03T08:16:06;25.40;66.00
44607;DHT22;30315;46.072;14.474;2022-08-03T08:18:33;25.50;66.50
44607;DHT22;30315;46.072;14.474;2022-08-03T08:21:00;25.50;65.90
44607;DHT22;30315;46.072;14.474;2022-08-03T08:23:29;25.60;65.90
44607;DHT22;30315;46.072;14.474;2022-08-03T08:26:10;25.70;65.70
44607;DHT22;30315;46.072;14.474;2022-08-03T08:28:37;25.70;65.40
44607;DHT22;30315;46.072;14.474;2022-08-03T08:31:04;25.80;65.40
44607;DHT22;30315;46.072;14.474;2022-08-03T08:33:32;25.80;64.90
44607;DHT22;30315;46.072;14.474;2022-08-03T08:36:20;25.90;64.90
44607;DHT22;30315;46.072;14.474;2022-08-03T08:38:47;25.90;64.90
44607;DHT22;30315;46.072;14.474;2022-08-03T08:41:15;25.90;65.20
44607;DHT22;30315;46.072;14.474;2022-08-03T08:43:42;26.00;65.30
44607;DHT22;30315;46.072;14.474;2022-08-03T08:46:12;26.00;64.80
44607;DHT22;30315;46.072;14.474;2022-08-03T08:48:51;26.10;64.10
44607;DHT22;30315;46.072;14.474;2022-08-03T08:51:20;26.20;65.30
44607;DHT22;30315;46.072;14.474;2022-08-03T08:53:50;26.30;65.00
44607;DHT22;30315;46.072;14.474;2022-08-03T08:56:19;26.30;64.80
44607;DHT22;30315;46.072;14.474;2022-08-03T08:58:51;26.40;64.40
44607;DHT22;30315;46.072;14.474;2022-08-03T09:01:19;26.40;64.50
44607;DHT22;30315;46.072;14.474;2022-08-03T09:03:47;26.50;64.30
44607;DHT22;30315;46.072;14.474;2022-08-03T09:06:15;26.60;64.00
44607;DHT22;30315;46.072;14.474;2022-08-03T09:08:42;26.60;63.90
44607;DHT22;30315;46.072;14.474;2022-08-03T09:11:09;26.70;63.80
44607;DHT22;30315;46.072;14.474;2022-08-03T09:13:38;26.80;63.50
44607;DHT22;30315;46.072;14.474;2022-08-03T09:16:16;26.80;63.30
44607;DHT22;30315;46.072;14.474;2022-08-03T09:18:52;26.90;63.50
44607;DHT22;30315;46.072;14.474;2022-08-03T09:21:25;26.90;62.90
44607;DHT22;30315;46.072;14.474;2022-08-03T09:24:03;27.00;62.10
44607;DHT22;30315;46.072;14.474;2022-08-03T09:26:36;27.00;61.40
44607;DHT22;30315;46.072;14.474;2022-08-03T09:29:05;27.10;61.90
44607;DHT22;30315;46.072;14.474;2022-08-03T09:31:42;27.20;62.60
44607;DHT22;30315;46.072;14.474;2022-08-03T09:34:13;27.20;62.70
44607;DHT22;30315;46.072;14.474;2022-08-03T09:36:45;27.30;62.90
44607;DHT22;30315;46.072;14.474;2022-08-03T09:41:43;27.50;62.30
44607;DHT22;30315;46.072;14.474;2022-08-03T09:44:10;27.50;62.40
44607;DHT22;30315;46.072;14.474;2022-08-03T09:46:53;27.70;62.20
44607;DHT22;30315;46.072;14.474;2022-08-03T09:49:22;27.70;61.60
44607;DHT22;30315;46.072;14.474;2022-08-03T09:51:49;27.80;61.60
44607;DHT22;30315;46.072;14.474;2022-08-03T09:54:36;27.90;61.10
44607;DHT22;30315;46.072;14.474;2022-08-03T09:57:03;28.00;60.70
44607;DHT22;30315;46.072;14.474;2022-08-03T09:59:32;28.10;60.90
44607;DHT22;30315;46.072;14.474;2022-08-03T10:01:59;28.20;61.00
44607;DHT22;30315;46.072;14.474;2022-08-03T10:04:29;28.30;61.30
44607;DHT22;30315;46.072;14.474;2022-08-03T10:07:03;28.40;61.50
44607;DHT22;30315;46.072;14.474;2022-08-03T10:09:30;28.50;61.70
44607;DHT22;30315;46.072;14.474;2022-08-03T10:12:09;28.60;60.00
44607;DHT22;30315;46.072;14.474;2022-08-03T10:14:38;28.70;60.00
44607;DHT22;30315;46.072;14.474;2022-08-03T10:17:06;28.70;60.00
44607;DHT22;30315;46.072;14.474;2022-08-03T10:19:33;28.70;60.00
44607;DHT22;30315;46.072;14.474;2022-08-03T10:22:03;28.70;59.40
44607;DHT22;30315;46.072;14.474;2022-08-03T10:24:34;28.80;59.60
44607;DHT22;30315;46.072;14.474;2022-08-03T10:27:05;28.90;59.40
44607;DHT22;30315;46.072;14.474;2022-08-03T10:29:38;28.90;59.30
44607;DHT22;30315;46.072;14.474;2022-08-03T10:32:15;29.00;58.00
44607;DHT22;30315;46.072;14.474;2022-08-03T10:34:45;29.10;56.60
44607;DHT22;30315;46.072;14.474;2022-08-03T10:37:16;29.10;56.50
44607;DHT22;30315;46.072;14.474;2022-08-03T10:39:44;29.20;55.70
44607;DHT22;30315;46.072;14.474;2022-08-03T10:42:34;29.30;55.50
44607;DHT22;30315;46.072;14.474;2022-08-03T10:45:12;29.40;55.40
44607;DHT22;30315;46.072;14.474;2022-08-03T10:47:40;29.40;56.30
44607;DHT22;30315;46.072;14.474;2022-08-03T10:50:08;29.50;55.80
44607;DHT22;30315;46.072;14.474;2022-08-03T10:52:56;29.50;55.70
44607;DHT22;30315;46.072;14.474;2022-08-03T10:55:44;29.60;56.10
44607;DHT22;30315;46.072;14.474;2022-08-03T11:04:36;29.80;52.90
44607;DHT22;30315;46.072;14.474;2022-08-03T11:09:47;29.90;53.90
44607;DHT22;30315;46.072;14.474;2022-08-03T11:12:22;30.00;53.80
44607;DHT22;30315;46.072;14.474;2022-08-03T11:15:00;30.10;53.00
44607;DHT22;30315;46.072;14.474;2022-08-03T11:17:28;30.20;53.00
44607;DHT22;30315;46.072;14.474;2022-08-03T11:19:55;30.30;52.40
44607;DHT22;30315;46.072;14.474;2022-08-03T11:22:24;30.40;52.50
44607;DHT22;30315;46.072;14.474;2022-08-03T11:27:26;30.50;51.90
44607;DHT22;30315;46.072;14.474;2022-08-03T11:29:57;30.60;51.80
44607;DHT22;30315;46.072;14.474;2022-08-03T11:35:17;30.40;51.70
44607;DHT22;30315;46.072;14.474;2022-08-03T11:40:47;31.00;50.60
44607;DHT22;30315;46.072;14.474;2022-08-03T11:46:00;31.10;49.80
44607;DHT22;30315;46.072;14.474;2022-08-03T11:48:40;31.20;50.00
44607;DHT22;30315;46.072;14.474;2022-08-03T11:51:22;31.20;49.20
44607;DHT22;30315;46.072;14.474;2022-08-03T11:53:56;31.40;49.30
44607;DHT22;30315;46.072;14.474;2022-08-03T11:56:24;31.50;49.50
44607;DHT22;30315;46.072;14.474;2022-08-03T11:58:56;31.50;48.80
44607;DHT22;30315;46.072;14.474;2022-08-03T12:01:43;31.70;49.10
44607;DHT22;30315;46.072;14.474;2022-08-03T12:04:11;31.70;48.70
44607;DHT22;30315;46.072;14.474;2022-08-03T12:06:38;31.90;48.40
44607;DHT22;30315;46.072;14.474;2022-08-03T12:09:21;31.90;47.80
44607;DHT22;30315;46.072;14.474;2022-08-03T12:11:51;32.00;48.10
44607;DHT22;30315;46.072;14.474;2022-08-03T12:14:27;32.00;48.00
44607;DHT22;30315;46.072;14.474;2022-08-03T12:17:15;32.20;48.00
44607;DHT22;30315;46.072;14.474;2022-08-03T12:19:43;32.30;47.30
44607;DHT22;30315;46.072;14.474;2022-08-03T12:22:11;32.00;46.80
44607;DHT22;30315;46.072;14.474;2022-08-03T12:24:41;32.40;46.70
44607;DHT22;30315;46.072;14.474;2022-08-03T12:27:08;32.80;47.40
44607;DHT22;30315;46.072;14.474;2022-08-03T12:29:35;32.60;46.60
44607;DHT22;30315;46.072;14.474;2022-08-03T12:32:03;32.60;45.90
44607;DHT22;30315;46.072;14.474;2022-08-03T12:34:49;32.70;45.40
44607;DHT22;30315;46.072;14.474;2022-08-03T12:37:20;32.70;46.10
44607;DHT22;30315;46.072;14.474;2022-08-03T12:39:54;32.70;44.60
44607;DHT22;30315;46.072;14.474;2022-08-03T12:44:57;32.90;45.40
44607;DHT22;30315;46.072;14.474;2022-08-03T12:47:24;33.00;45.00
44607;DHT22;30315;46.072;14.474;2022-08-03T12:49:52;33.00;45.20
44607;DHT22;30315;46.072;14.474;2022-08-03T12:52:21;33.10;44.70
44607;DHT22;30315;46.072;14.474;2022-08-03T12:54:57;33.20;44.20
44607;DHT22;30315;46.072;14.474;2022-08-03T12:57:24;33.30;43.80
44607;DHT22;30315;46.072;14.474;2022-08-03T12:59:51;33.40;43.80
44607;DHT22;30315;46.072;14.474;2022-08-03T13:02:23;33.50;44.00
44607;DHT22;30315;46.072;14.474;2022-08-03T13:04:53;33.60;43.90
44607;DHT22;30315;46.072;14.474;2022-08-03T13:07:21;33.70;43.30
44607;DHT22;30315;46.072;14.474;2022-08-03T13:09:51;33.80;43.00
44607;DHT22;30315;46.072;14.474;2022-08-03T13:12:23;33.90;43.10
44607;DHT22;30315;46.072;14.474;2022-08-03T13:15:00;34.00;43.00
44607;DHT22;30315;46.072;14.474;2022-08-03T13:17:27;34.10;43.60
44607;DHT22;30315;46.072;14.474;2022-08-03T13:19:54;34.20;42.30
44607;DHT22;30315;46.072;14.474;2022-08-03T13:22:24;34.30;42.20
44607;DHT22;30315;46.072;14.474;2022-08-03T13:24:52;34.50;42.10
44607;DHT22;30315;46.072;14.474;2022-08-03T13:27:21;34.60;42.30
44607;DHT22;30315;46.072;14.474;2022-08-03T13:30:09;34.70;41.40
44607;DHT22;30315;46.072;14.474;2022-08-03T13:32:36;34.80;40.90
44607;DHT22;30315;46.072;14.474;2022-08-03T13:35:03;34.80;41.10
44607;DHT22;30315;46.072;14.474;2022-08-03T13:37:32;35.00;41.10
44607;DHT22;30315;46.072;14.474;2022-08-03T13:40:00;35.10;40.80
44607;DHT22;30315;46.072;14.474;2022-08-03T13:42:32;35.20;39.50
44607;DHT22;30315;46.072;14.474;2022-08-03T13:45:00;35.30;40.00
44607;DHT22;30315;46.072;14.474;2022-08-03T13:47:27;35.40;40.10
44607;DHT22;30315;46.072;14.474;2022-08-03T13:49:54;35.50;39.00
44607;DHT22;30315;46.072;14.474;2022-08-03T13:52:32;35.60;39.30
44607;DHT22;30315;46.072;14.474;2022-08-03T13:55:02;35.70;38.90
44607;DHT22;30315;46.072;14.474;2022-08-03T13:57:29;35.70;38.30
44607;DHT22;30315;46.072;14.474;2022-08-03T14:00:17;35.80;38.20
44607;DHT22;30315;46.072;14.474;2022-08-03T14:02:59;35.80;37.40
44607;DHT22;30315;46.072;14.474;2022-08-03T14:05:42;35.80;37.10
44607;DHT22;30315;46.072;14.474;2022-08-03T14:08:10;35.90;37.30
44607;DHT22;30315;46.072;14.474;2022-08-03T14:10:42;35.90;37.20
44607;DHT22;30315;46.072;14.474;2022-08-03T14:13:12;35.90;37.50
44607;DHT22;30315;46.072;14.474;2022-08-03T14:15:43;36.00;37.30
44607;DHT22;30315;46.072;14.474;2022-08-03T14:18:17;36.10;37.10
44607;DHT22;30315;46.072;14.474;2022-08-03T14:21:01;36.20;36.70
44607;DHT22;30315;46.072;14.474;2022-08-03T14:23:33;36.20;36.40
44607;DHT22;30315;46.072;14.474;2022-08-03T14:26:00;36.20;36.10
44607;DHT22;30315;46.072;14.474;2022-08-03T14:28:27;36.30;36.40
44607;DHT22;30315;46.072;14.474;2022-08-03T14:30:55;36.40;36.00
44607;DHT22;30315;46.072;14.474;2022-08-03T14:33:22;36.50;35.50
44607;DHT22;30315;46.072;14.474;2022-08-03T14:35:50;36.50;35.40
44607;DHT22;30315;46.072;14.474;2022-08-03T14:38:18;36.60;35.20
44607;DHT22;30315;46.072;14.474;2022-08-03T14:40:45;36.60;35.60
44607;DHT22;30315;46.072;14.474;2022-08-03T14:43:13;36.70;36.30
44607;DHT22;30315;46.072;14.474;2022-08-03T14:45:40;36.90;36.40
44607;DHT22;30315;46.072;14.474;2022-08-03T14:48:08;37.00;35.50
44607;DHT22;30315;46.072;14.474;2022-08-03T14:50:55;37.10;35.20
44607;DHT22;30315;46.072;14.474;2022-08-03T14:53:22;37.30;35.50
44607;DHT22;30315;46.072;14.474;2022-08-03T14:55:49;37.30;34.70
44607;DHT22;30315;46.072;14.474;2022-08-03T14:58:19;37.20;33.80
44607;DHT22;30315;46.072;14.474;2022-08-03T15:00:48;37.10;33.70
44607;DHT22;30315;46.072;14.474;2022-08-03T15:03:16;37.00;33.80
44607;DHT22;30315;46.072;14.474;2022-08-03T15:05:47;37.00;34.20
44607;DHT22;30315;46.072;14.474;2022-08-03T15:08:14;37.10;34.30
44607;DHT22;30315;46.072;14.474;2022-08-03T15:10:41;37.20;34.50
44607;DHT22;30315;46.072;14.474;2022-08-03T15:13:14;37.40;33.80
44607;DHT22;30315;46.072;14.474;2022-08-03T15:15:41;37.50;33.40
44607;DHT22;30315;46.072;14.474;2022-08-03T15:18:08;37.70;32.90
44607;DHT22;30315;46.072;14.474;2022-08-03T15:20:35;37.80;33.10
44607;DHT22;30315;46.072;14.474;2022-08-03T15:23:12;38.00;32.90
44607;DHT22;30315;46.072;14.474;2022-08-03T15:25:40;38.10;31.90
44607;DHT22;30315;46.072;14.474;2022-08-03T15:28:28;38.00;31.70
44607;DHT22;30315;46.072;14.474;2022-08-03T15:30:55;38.10;31.10
44607;DHT22;30315;46.072;14.474;2022-08-03T15:33:22;38.10;31.40
44607;DHT22;30315;46.072;14.474;2022-08-03T15:35:49;38.20;30.40
44607;DHT22;30315;46.072;14.474;2022-08-03T15:38:16;38.20;30.70
44607;DHT22;30315;46.072;14.474;2022-08-03T15:40:44;38.30;30.60
44607;DHT22;30315;46.072;14.474;2022-08-03T15:43:11;38.30;30.50
44607;DHT22;30315;46.072;14.474;2022-08-03T15:45:38;38.30;31.20
44607;DHT22;30315;46.072;14.474;2022-08-03T15:48:08;38.30;31.20
44607;DHT22;30315;46.072;14.474;2022-08-03T15:50:35;38.40;30.50
44607;DHT22;30315;46.072;14.474;2022-08-03T15:53:02;38.50;30.80
44607;DHT22;30315;46.072;14.474;2022-08-03T15:55:30;38.40;30.50
44607;DHT22;30315;46.072;14.474;2022-08-03T15:57:57;38.40;30.50
44607;DHT22;30315;46.072;14.474;2022-08-03T16:00:44;38.50;31.00
44607;DHT22;30315;46.072;14.474;2022-08-03T16:03:11;38.50;31.40
44607;DHT22;30315;46.072;14.474;2022-08-03T16:05:38;38.70;31.50
44607;DHT22;30315;46.072;14.474;2022-08-03T16:08:06;38.70;31.50
44607;DHT22;30315;46.072;14.474;2022-08-03T16:10:39;38.70;31.90
44607;DHT22;30315;46.072;14.474;2022-08-03T16:13:06;38.80;31.60
44607;DHT22;30315;46.072;14.474;2022-08-03T16:15:34;38.80;31.30